Time;durP1;ratioP1;P1;durP2;ratioP2;P2;SDS_P1;SDS_P2;PMS_P1;PMS_P2;Temp;Humidity;BMP_temperature;BMP_pressure;BME280_temperature;BME280_humidity;BME280_pressure;Samples;Min_cycle;Max_cycle;Signal;HPM_P1;HPM_P2
2024/02/16 00:01:58;;;;;;;7.43;2.60;;;12.30;99.90;;;;;;5073524;28;20454;-70
2024/02/16 00:04:23;;;;;;;2.50;2.30;;;12.30;99.90;;;;;;5073454;28;20470;-70
2024/02/16 00:06:49;;;;;;;3.77;2.70;;;12.30;99.90;;;;;;5073654;28;20186;-70
2024/02/16 00:09:14;;;;;;;3.57;2.30;;;12.30;99.90;;;;;;5073390;28;20181;-70
2024/02/16 00:11:40;;;;;;;3.50;2.60;;;12.30;99.90;;;;;;5073065;28;20176;-71
2024/02/16 00:14:05;;;;;;;3.13;2.30;;;12.30;99.90;;;;;;5073126;28;20198;-70
2024/02/16 00:16:31;;;;;;;4.90;3.13;;;12.30;99.90;;;;;;5073110;28;20280;-70
2024/02/16 00:18:57;;;;;;;3.13;2.63;;;12.20;99.90;;;;;;5073131;28;20154;-70
2024/02/16 00:21:22;;;;;;;5.83;2.37;;;12.20;99.90;;;;;;5071894;28;20163;-70
2024/02/16 00:23:48;;;;;;;3.03;2.30;;;12.20;99.90;;;;;;5073033;28;20166;-70
2024/02/16 00:26:13;;;;;;;2.80;2.47;;;12.20;99.90;;;;;;5073004;28;20182;-71
2024/02/16 00:28:39;;;;;;;2.73;2.00;;;12.20;99.90;;;;;;5072353;28;20322;-71
2024/02/16 00:31:05;;;;;;;3.77;3.10;;;12.20;99.90;;;;;;5072455;28;20166;-70
2024/02/16 00:33:31;;;;;;;3.00;2.70;;;12.30;99.90;;;;;;5072104;28;20223;-71
2024/02/16 00:35:56;;;;;;;6.50;2.20;;;12.30;99.90;;;;;;5072388;28;20915;-70
2024/02/16 00:38:23;;;;;;;2.63;2.30;;;12.30;99.90;;;;;;5072789;28;20253;-70
2024/02/16 00:40:48;;;;;;;3.13;2.33;;;12.40;99.90;;;;;;5066852;28;20195;-70
2024/02/16 00:43:15;;;;;;;2.17;1.53;;;12.40;99.90;;;;;;5072492;28;20503;-70
2024/02/16 00:45:44;;;;;;;2.93;2.23;;;12.40;99.90;;;;;;5072509;28;20166;-70
2024/02/16 00:48:09;;;;;;;3.10;2.00;;;12.50;99.90;;;;;;5071298;28;20416;-71
2024/02/16 00:50:35;;;;;;;2.90;2.60;;;12.60;99.90;;;;;;5072281;28;20411;-70
2024/02/16 00:53:01;;;;;;;4.90;2.23;;;12.50;99.90;;;;;;5072251;28;20206;-70
2024/02/16 00:55:26;;;;;;;4.10;2.40;;;12.50;99.90;;;;;;5072454;28;20167;-71
2024/02/16 00:57:51;;;;;;;4.63;2.70;;;12.60;99.90;;;;;;5072324;28;20598;-71
2024/02/16 01:00:19;;;;;;;2.93;1.93;;;12.70;99.90;;;;;;5072007;28;20166;-70
2024/02/16 01:02:44;;;;;;;2.73;2.47;;;12.60;99.90;;;;;;5071081;28;20174;-70
2024/02/16 01:05:10;;;;;;;2.40;2.07;;;12.60;99.90;;;;;;5072315;28;20396;-69
2024/02/16 01:07:36;;;;;;;5.87;1.90;;;12.70;99.90;;;;;;5072253;28;20277;-71
2024/02/16 01:10:03;;;;;;;2.83;2.30;;;12.70;99.90;;;;;;5072088;28;20748;-71
2024/02/16 01:12:31;;;;;;;2.43;2.23;;;12.60;99.90;;;;;;5072030;28;20470;-71
2024/02/16 01:14:56;;;;;;;3.43;2.87;;;12.60;99.90;;;;;;5072116;28;20911;-70
2024/02/16 01:17:22;;;;;;;2.50;2.10;;;12.60;99.90;;;;;;5070670;28;20459;-71
2024/02/16 01:19:47;;;;;;;3.63;2.37;;;12.70;99.90;;;;;;5071726;28;20205;-71
2024/02/16 01:22:13;;;;;;;7.50;1.83;;;12.60;99.90;;;;;;5070697;28;20162;-70
2024/02/16 01:24:39;;;;;;;3.00;2.57;;;12.60;99.90;;;;;;5072082;28;20513;-70
2024/02/16 01:27:04;;;;;;;3.80;2.37;;;12.70;99.90;;;;;;5071852;28;20423;-70
2024/02/16 01:29:32;;;;;;;2.60;2.40;;;12.60;99.90;;;;;;5071696;28;20174;-70
2024/02/16 01:31:57;;;;;;;3.73;2.37;;;12.70;99.90;;;;;;5071939;28;20308;-70
2024/02/16 01:34:23;;;;;;;6.10;3.00;;;12.60;99.90;;;;;;5071591;28;20543;-71
2024/02/16 01:36:48;;;;;;;2.93;2.40;;;12.60;99.90;;;;;;5071830;28;20583;-71
2024/02/16 01:39:14;;;;;;;8.47;2.43;;;12.60;99.90;;;;;;5067710;28;20170;-71
2024/02/16 01:41:39;;;;;;;1.63;1.50;;;12.70;99.90;;;;;;5069603;28;20170;-71
2024/02/16 01:44:05;;;;;;;4.10;2.87;;;12.60;99.90;;;;;;5071448;28;20185;-71
2024/02/16 01:46:32;;;;;;;2.20;1.90;;;12.50;99.90;;;;;;5071706;28;20182;-70
2024/02/16 01:48:57;;;;;;;2.43;1.93;;;12.60;99.90;;;;;;5072001;28;20166;-71
2024/02/16 01:51:25;;;;;;;3.73;2.53;;;12.60;99.90;;;;;;5071447;28;20396;-70
2024/02/16 01:53:52;;;;;;;3.23;2.23;;;12.60;99.90;;;;;;5071701;28;20897;-70
2024/02/16 01:56:20;;;;;;;4.40;2.23;;;12.60;99.90;;;;;;5071564;28;20444;-71
2024/02/16 01:58:47;;;;;;;2.43;2.23;;;12.50;99.90;;;;;;5071761;28;20484;-70
2024/02/16 02:01:12;;;;;;;2.07;1.87;;;12.50;99.90;;;;;;5070512;28;20942;-70
2024/02/16 02:03:38;;;;;;;4.03;2.60;;;12.60;99.90;;;;;;5071635;28;20408;-70
2024/02/16 02:06:03;;;;;;;3.30;2.00;;;12.60;99.90;;;;;;5071573;28;20259;-69
2024/02/16 02:08:29;;;;;;;1.97;1.87;;;12.60;99.90;;;;;;5071800;28;20201;-71
2024/02/16 02:10:54;;;;;;;3.00;1.90;;;12.70;99.90;;;;;;5071656;28;20178;-70
2024/02/16 02:13:21;;;;;;;2.80;1.93;;;12.70;99.90;;;;;;5071435;28;20707;-70
2024/02/16 02:15:47;;;;;;;5.67;2.07;;;12.70;99.90;;;;;;5071562;28;20436;-70
2024/02/16 02:18:13;;;;;;;3.30;1.83;;;12.70;99.90;;;;;;5071371;28;20429;-70
2024/02/16 02:20:39;;;;;;;3.10;2.30;;;12.70;99.90;;;;;;5069743;28;20170;-70
2024/02/16 02:23:04;;;;;;;2.33;2.00;;;12.70;99.90;;;;;;5071294;28;20171;-71
2024/02/16 02:25:30;;;;;;;2.77;2.57;;;12.70;99.90;;;;;;5071288;28;20251;-70
2024/02/16 02:27:56;;;;;;;3.10;2.03;;;12.60;99.90;;;;;;5071286;28;20190;-70
2024/02/16 02:30:22;;;;;;;5.03;2.20;;;12.70;99.90;;;;;;5071121;28;20198;-71
2024/02/16 02:32:49;;;;;;;3.33;2.33;;;12.70;99.90;;;;;;5071057;28;20506;-70
2024/02/16 02:35:17;;;;;;;2.83;1.90;;;12.70;99.90;;;;;;5071254;28;20478;-70
2024/02/16 02:37:43;;;;;;;1.90;1.80;;;12.70;99.90;;;;;;5071192;28;20427;-70
2024/02/16 02:40:09;;;;;;;2.57;2.37;;;12.70;99.90;;;;;;5065508;28;20413;-70
2024/02/16 02:42:35;;;;;;;3.03;2.60;;;12.70;99.90;;;;;;5070925;28;20261;-70
2024/02/16 02:45:01;;;;;;;3.40;2.70;;;12.80;99.90;;;;;;5072396;28;20803;-71
2024/02/16 02:47:27;;;;;;;4.53;2.93;;;12.80;99.90;;;;;;5074907;28;20471;-70
2024/02/16 02:49:53;;;;;;;3.80;2.53;;;12.70;99.90;;;;;;5074676;28;20440;-71
2024/02/16 02:52:19;;;;;;;2.23;2.03;;;12.70;99.90;;;;;;5074728;28;20186;-71
2024/02/16 02:54:44;;;;;;;4.87;2.77;;;12.80;99.90;;;;;;5073269;28;20205;-71
2024/02/16 02:57:10;;;;;;;3.27;3.07;;;12.70;99.90;;;;;;5074651;28;20531;-70
2024/02/16 02:59:35;;;;;;;3.90;2.57;;;12.70;99.90;;;;;;5074669;28;20205;-70
2024/02/16 03:02:01;;;;;;;3.60;3.30;;;12.70;99.90;;;;;;5074656;28;20803;-70
2024/02/16 03:04:26;;;;;;;3.40;2.10;;;12.80;99.90;;;;;;5074684;28;20236;-71
2024/02/16 03:06:52;;;;;;;3.00;2.60;;;12.80;99.90;;;;;;5073370;28;20197;-70
2024/02/16 03:09:18;;;;;;;6.70;3.20;;;12.70;99.90;;;;;;5074464;28;20512;-70
2024/02/16 03:11:43;;;;;;;6.40;3.67;;;12.70;99.90;;;;;;5074315;28;20593;-70
2024/02/16 03:14:09;;;;;;;3.30;2.40;;;12.70;99.90;;;;;;5074385;28;20194;-70
2024/02/16 03:16:34;;;;;;;5.73;3.03;;;12.70;99.90;;;;;;5074341;28;20547;-70
2024/02/16 03:19:00;;;;;;;4.47;2.80;;;12.70;99.90;;;;;;5074297;28;20170;-70
2024/02/16 03:21:25;;;;;;;4.20;2.70;;;12.60;99.90;;;;;;5074001;28;20632;-70
2024/02/16 03:23:51;;;;;;;3.60;2.70;;;12.60;99.90;;;;;;5074136;28;20254;-70
2024/02/16 03:26:18;;;;;;;4.17;2.80;;;12.60;99.90;;;;;;5074142;28;20285;-71
2024/02/16 03:28:48;;;;;;;4.53;2.50;;;12.60;99.90;;;;;;5072965;28;20629;-70
2024/02/16 03:31:22;;;;;;;4.33;2.60;;;12.60;99.90;;;;;;5074124;28;20404;-70
2024/02/16 03:33:48;;;;;;;4.70;3.33;;;12.60;99.90;;;;;;5072672;28;20456;-70
2024/02/16 03:36:14;;;;;;;3.37;2.73;;;12.60;99.90;;;;;;5074069;28;20453;-70
2024/02/16 03:38:49;;;;;;;4.70;2.43;;;12.60;99.90;;;;;;5073952;28;20411;-71
2024/02/16 03:41:18;;;;;;;4.10;2.87;;;12.60;99.90;;;;;;5069399;28;20431;-70
2024/02/16 03:43:44;;;;;;;5.10;2.13;;;12.50;99.90;;;;;;5073876;28;20438;-71
2024/02/16 03:46:10;;;;;;;3.80;2.40;;;12.50;99.90;;;;;;5073720;28;20470;-70
2024/02/16 03:48:36;;;;;;;5.27;2.67;;;12.40;99.90;;;;;;5073811;28;20748;-70
2024/02/16 03:51:05;;;;;;;2.50;2.30;;;12.40;99.90;;;;;;5073508;28;20450;-70
2024/02/16 03:53:31;;;;;;;4.37;2.17;;;12.40;99.90;;;;;;5073577;28;20201;-70
2024/02/16 03:55:56;;;;;;;4.27;3.07;;;12.40;99.90;;;;;;5073541;28;20507;-70
2024/02/16 03:58:22;;;;;;;3.57;2.50;;;12.20;99.90;;;;;;5073753;28;20166;-70
2024/02/16 04:00:52;;;;;;;2.90;1.97;;;12.20;99.90;;;;;;5073453;28;20706;-71
2024/02/16 04:03:18;;;;;;;4.00;2.30;;;12.30;99.90;;;;;;5072345;28;20411;-71
2024/02/16 04:05:44;;;;;;;2.43;2.00;;;12.30;99.90;;;;;;5073406;28;20412;-71
2024/02/16 04:08:10;;;;;;;6.73;2.47;;;12.40;99.90;;;;;;5073734;28;20408;-71
2024/02/16 04:10:36;;;;;;;2.23;2.03;;;12.40;99.90;;;;;;5073174;28;20956;-70
2024/02/16 04:13:02;;;;;;;2.40;2.17;;;12.50;99.90;;;;;;5073246;28;20225;-70
2024/02/16 04:15:27;;;;;;;6.27;2.03;;;12.40;99.90;;;;;;5073305;28;20177;-70
2024/02/16 04:17:53;;;;;;;2.80;2.43;;;12.50;99.90;;;;;;5073093;28;20420;-70
2024/02/16 04:20:19;;;;;;;4.80;2.33;;;12.50;99.90;;;;;;5072114;28;20170;-70
2024/02/16 04:22:45;;;;;;;3.10;2.10;;;12.40;99.90;;;;;;5071207;28;20189;-70
2024/02/16 04:25:11;;;;;;;5.07;2.60;;;12.40;99.90;;;;;;5073020;28;20770;-70
2024/02/16 04:27:38;;;;;;;3.80;2.37;;;12.50;99.90;;;;;;5072894;28;20419;-69
2024/02/16 04:30:04;;;;;;;5.03;2.07;;;12.50;99.90;;;;;;5072791;28;20522;-70
2024/02/16 04:32:30;;;;;;;2.80;2.07;;;12.50;99.90;;;;;;5073140;28;20896;-69
2024/02/16 04:34:56;;;;;;;6.13;2.57;;;12.60;99.90;;;;;;5073379;28;20830;-70
2024/02/16 04:37:23;;;;;;;2.20;2.00;;;12.60;99.90;;;;;;5072693;28;20543;-69
2024/02/16 04:39:49;;;;;;;3.47;2.13;;;12.70;99.90;;;;;;5067114;28;20260;-70
2024/02/16 04:42:14;;;;;;;3.17;2.20;;;12.70;99.90;;;;;;5072522;28;20886;-70
2024/02/16 04:44:40;;;;;;;2.23;2.03;;;12.70;99.90;;;;;;5072261;28;20181;-69
2024/02/16 04:47:06;;;;;;;2.20;1.70;;;12.80;99.90;;;;;;5072409;28;20684;-70
2024/02/16 04:49:32;;;;;;;4.47;1.87;;;12.90;99.90;;;;;;5072293;28;20319;-70
2024/02/16 04:51:58;;;;;;;2.20;1.53;;;13.00;99.90;;;;;;5072526;28;20190;-69
2024/02/16 04:54:24;;;;;;;3.30;1.50;;;13.00;99.90;;;;;;5072489;28;20826;-70
2024/02/16 04:56:50;;;;;;;1.93;1.70;;;13.10;99.90;;;;;;5072440;28;20190;-70
2024/02/16 04:59:16;;;;;;;4.83;2.53;;;13.10;99.90;;;;;;5072300;28;20169;-70
2024/02/16 05:01:45;;;;;;;2.70;2.33;;;13.10;99.90;;;;;;5072041;28;20185;-69
2024/02/16 05:04:13;;;;;;;3.03;2.20;;;13.20;99.90;;;;;;5071768;28;20949;-70
2024/02/16 05:06:40;;;;;;;4.57;1.93;;;13.10;99.90;;;;;;5067124;28;20447;-69
2024/02/16 05:09:05;;;;;;;4.27;2.10;;;13.20;99.90;;;;;;5069314;28;20416;-70
2024/02/16 05:11:34;;;;;;;1.93;1.70;;;13.10;99.90;;;;;;5071821;28;20404;-70
2024/02/16 05:14:00;;;;;;;3.47;1.90;;;13.00;99.90;;;;;;5072093;28;20237;-70
2024/02/16 05:16:26;;;;;;;3.73;2.20;;;13.00;99.90;;;;;;5072295;28;20460;-70
2024/02/16 05:18:52;;;;;;;2.50;2.00;;;13.00;99.90;;;;;;5072135;28;20174;-70
2024/02/16 05:21:18;;;;;;;1.57;1.47;;;12.90;99.90;;;;;;5071852;28;20396;-70
2024/02/16 05:23:43;;;;;;;2.43;2.17;;;12.90;99.90;;;;;;5072084;28;20761;-70
2024/02/16 05:26:09;;;;;;;3.10;2.57;;;12.90;99.90;;;;;;5071992;28;20186;-70
2024/02/16 05:28:34;;;;;;;4.50;2.27;;;12.80;99.90;;;;;;5072032;28;20167;-70
2024/02/16 05:31:20;;;;;;;4.83;2.43;;;12.80;99.90;;;;;;5071748;28;20173;-70
2024/02/16 05:33:50;;;;;;;3.00;2.40;;;12.70;99.90;;;;;;5071608;28;20206;-70
2024/02/16 05:36:20;;;;;;;5.27;2.57;;;12.70;99.90;;;;;;5071915;28;20470;-71
2024/02/16 05:38:48;;;;;;;6.23;2.17;;;12.70;99.90;;;;;;5071922;28;20403;-70
2024/02/16 05:41:15;;;;;;;6.77;2.07;;;12.70;99.90;;;;;;5066423;28;20546;-72
2024/02/16 05:43:43;;;;;;;3.40;2.33;;;12.60;99.90;;;;;;5071564;28;20427;-70
2024/02/16 05:46:16;;;;;;;6.30;2.80;;;12.60;99.90;;;;;;5071761;28;20424;-70
2024/02/16 05:48:42;;;;;;;1.97;1.67;;;12.60;99.90;;;;;;5071906;28;20403;-71
2024/02/16 05:51:08;;;;;;;3.17;2.13;;;12.50;99.90;;;;;;5070182;28;20423;-71
2024/02/16 05:53:34;;;;;;;2.90;2.10;;;12.50;99.90;;;;;;5071553;28;20456;-71
2024/02/16 05:56:00;;;;;;;3.80;2.00;;;12.50;99.90;;;;;;5070269;28;20194;-70
2024/02/16 05:58:26;;;;;;;3.13;2.17;;;12.50;99.90;;;;;;5071752;28;20727;-70
2024/02/16 06:00:51;;;;;;;2.13;1.93;;;12.50;99.90;;;;;;5071434;28;20436;-70
2024/02/16 06:03:17;;;;;;;2.53;2.10;;;12.50;99.90;;;;;;5071859;28;20879;-71
2024/02/16 06:05:45;;;;;;;4.40;1.90;;;12.50;99.90;;;;;;5071530;28;20170;-70
2024/02/16 06:08:12;;;;;;;4.43;1.90;;;12.50;99.90;;;;;;5071605;28;20166;-71
2024/02/16 06:10:37;;;;;;;2.50;2.20;;;12.60;99.90;;;;;;5071289;28;20402;-70
2024/02/16 06:13:03;;;;;;;4.67;2.43;;;12.60;99.90;;;;;;5071364;28;20516;-70
2024/02/16 06:15:29;;;;;;;3.80;2.60;;;12.50;99.90;;;;;;5071580;28;20166;-71
2024/02/16 06:17:56;;;;;;;4.23;2.23;;;12.50;99.90;;;;;;5070185;28;20182;-70
2024/02/16 06:20:22;;;;;;;2.90;2.30;;;12.50;99.90;;;;;;5073200;28;20208;-70
2024/02/16 06:22:47;;;;;;;4.30;1.90;;;12.50;99.90;;;;;;5075458;28;20396;-70
2024/02/16 06:25:15;;;;;;;3.30;2.27;;;12.50;99.90;;;;;;5075371;28;20446;-71
2024/02/16 06:27:41;;;;;;;6.80;2.80;;;12.50;99.90;;;;;;5075315;28;20212;-70
2024/02/16 06:30:10;;;;;;;2.17;1.90;;;12.50;99.90;;;;;;5075190;28;20926;-70
2024/02/16 06:32:35;;;;;;;1.90;1.60;;;12.50;99.90;;;;;;5075327;28;20400;-71
2024/02/16 06:35:01;;;;;;;6.63;2.40;;;12.60;99.90;;;;;;5067515;28;20868;-71
2024/02/16 06:37:26;;;;;;;3.10;2.07;;;12.60;99.90;;;;;;5074909;28;20186;-70
2024/02/16 06:39:52;;;;;;;2.70;2.03;;;12.60;99.90;;;;;;5065934;28;20171;-70
2024/02/16 06:42:17;;;;;;;2.23;2.00;;;12.60;99.90;;;;;;5072172;28;20170;-70
2024/02/16 06:44:43;;;;;;;2.00;1.60;;;12.70;99.90;;;;;;5074910;28;20189;-70
2024/02/16 06:47:08;;;;;;;2.70;2.47;;;12.80;99.90;;;;;;5074840;28;20190;-68
2024/02/16 06:49:34;;;;;;;3.63;2.37;;;12.70;99.90;;;;;;5075645;28;20177;-68
2024/02/16 06:51:59;;;;;;;1.97;1.77;;;12.80;99.90;;;;;;5074700;28;20311;-69
2024/02/16 06:54:25;;;;;;;3.03;2.00;;;12.90;99.90;;;;;;5076285;28;20218;-69
2024/02/16 06:56:51;;;;;;;5.27;2.63;;;12.90;99.90;;;;;;5076480;28;20559;-68
2024/02/16 06:59:17;;;;;;;5.40;2.10;;;13.00;99.90;;;;;;5076093;28;20220;-68
2024/02/16 07:01:42;;;;;;;1.97;1.87;;;13.10;99.90;;;;;;5067212;28;20423;-68
2024/02/16 07:04:09;;;;;;;3.37;2.40;;;13.00;99.90;;;;;;5073406;28;20420;-69
2024/02/16 07:06:34;;;;;;;3.53;2.50;;;13.00;99.90;;;;;;5069514;28;20204;-69
2024/02/16 07:09:00;;;;;;;3.57;2.17;;;13.10;99.90;;;;;;5056809;28;20915;-69
2024/02/16 07:11:26;;;;;;;2.33;1.80;;;13.10;99.90;;;;;;5074104;28;20188;-69
2024/02/16 07:13:51;;;;;;;3.90;2.77;;;13.20;99.90;;;;;;5074487;28;20197;-69
2024/02/16 07:16:18;;;;;;;4.20;2.47;;;13.20;99.90;;;;;;5074303;28;20186;-69
2024/02/16 07:18:43;;;;;;;6.70;2.37;;;13.30;99.90;;;;;;5074410;28;20162;-69
2024/02/16 07:21:09;;;;;;;4.63;2.00;;;13.20;99.90;;;;;;5074170;28;20444;-70
2024/02/16 07:23:34;;;;;;;3.93;2.17;;;13.30;99.90;;;;;;5074314;28;20174;-68
2024/02/16 07:26:01;;;;;;;2.67;2.07;;;13.30;99.90;;;;;;5074226;28;20190;-70
2024/02/16 07:28:27;;;;;;;2.97;2.00;;;13.40;99.90;;;;;;5073026;28;20197;-69
2024/02/16 07:30:53;;;;;;;2.17;1.83;;;13.40;99.90;;;;;;5073450;28;20405;-70
2024/02/16 07:33:19;;;;;;;2.63;2.20;;;13.50;99.90;;;;;;5074101;28;20471;-70
2024/02/16 07:35:44;;;;;;;2.83;1.90;;;13.60;99.90;;;;;;5074083;28;20165;-69
2024/02/16 07:38:10;;;;;;;3.83;1.93;;;13.60;99.90;;;;;;5074078;28;20166;-69
2024/02/16 07:40:36;;;;;;;4.10;2.40;;;13.60;99.90;;;;;;5069397;28;20243;-69
2024/02/16 07:43:02;;;;;;;3.77;1.87;;;13.70;99.90;;;;;;5073796;28;20257;-69
2024/02/16 07:45:28;;;;;;;1.90;1.40;;;13.60;99.90;;;;;;5074554;28;20405;-69
2024/02/16 07:47:54;;;;;;;3.67;2.37;;;13.60;99.90;;;;;;5076308;28;21067;-69
2024/02/16 07:50:21;;;;;;;2.63;1.87;;;13.70;99.90;;;;;;5073880;28;20174;-70
2024/02/16 07:52:48;;;;;;;3.83;2.10;;;13.80;99.90;;;;;;5073863;28;20420;-70
2024/02/16 07:55:13;;;;;;;2.40;2.20;;;13.80;99.90;;;;;;5072853;28;20401;-68
2024/02/16 07:57:39;;;;;;;2.50;1.63;;;13.70;99.90;;;;;;5071238;28;20447;-70
2024/02/16 08:00:06;;;;;;;2.07;1.80;;;13.70;99.90;;;;;;5057922;28;20186;-69
2024/02/16 08:02:32;;;;;;;1.53;1.43;;;13.70;99.90;;;;;;5073467;28;20253;-69
2024/02/16 08:04:59;;;;;;;3.57;1.20;;;13.70;99.90;;;;;;5073405;28;20484;-69
2024/02/16 08:07:24;;;;;;;4.90;1.93;;;13.80;99.90;;;;;;5068325;28;20252;-70
2024/02/16 08:09:50;;;;;;;2.80;2.10;;;13.90;99.90;;;;;;5071864;28;20444;-69
2024/02/16 08:12:16;;;;;;;5.00;2.00;;;13.90;99.90;;;;;;5073846;28;20174;-67
2024/02/16 08:14:42;;;;;;;3.47;1.80;;;13.90;99.90;;;;;;5073156;28;20673;-68
2024/02/16 08:17:09;;;;;;;3.10;2.03;;;13.90;99.90;;;;;;5073070;28;20482;-68
2024/02/16 08:19:37;;;;;;;1.70;1.50;;;14.00;99.90;;;;;;5073051;28;20432;-69
2024/02/16 08:22:07;;;;;;;5.87;2.40;;;14.10;99.90;;;;;;5071835;28;20816;-69
2024/02/16 08:24:33;;;;;;;3.97;2.27;;;14.10;99.90;;;;;;5073178;28;20941;-69
2024/02/16 08:26:59;;;;;;;2.83;2.10;;;14.30;99.90;;;;;;5072971;28;20795;-70
2024/02/16 08:29:27;;;;;;;4.00;1.93;;;14.30;99.90;;;;;;5072860;28;20411;-69
2024/02/16 08:31:54;;;;;;;2.40;1.93;;;14.40;99.90;;;;;;5072955;28;20530;-69
2024/02/16 08:34:20;;;;;;;2.50;1.67;;;14.50;99.90;;;;;;5071485;28;20474;-69
2024/02/16 08:36:50;;;;;;;2.07;1.83;;;14.60;99.90;;;;;;5072962;28;20424;-70
2024/02/16 08:39:16;;;;;;;12.60;2.63;;;14.60;99.90;;;;;;5071577;28;20166;-72
2024/02/16 08:41:44;;;;;;;2.57;2.30;;;14.70;99.90;;;;;;5063896;28;20984;-67
2024/02/16 08:44:10;;;;;;;4.70;2.17;;;14.80;99.90;;;;;;5064120;28;20424;-67
2024/02/16 08:46:36;;;;;;;4.27;1.77;;;14.80;99.90;;;;;;5072396;28;20489;-67
2024/02/16 08:49:02;;;;;;;2.63;2.03;;;14.80;99.90;;;;;;5072321;28;20779;-67
2024/02/16 08:51:28;;;;;;;2.53;1.90;;;14.90;99.90;;;;;;5072098;28;20408;-67
2024/02/16 08:53:54;;;;;;;3.23;2.67;;;14.90;99.90;;;;;;5072555;28;21104;-66
2024/02/16 08:56:19;;;;;;;3.60;2.87;;;14.90;99.90;;;;;;5072220;28;20984;-66
2024/02/16 08:58:45;;;;;;;4.30;2.10;;;14.90;99.90;;;;;;5072569;28;20178;-67
2024/02/16 09:01:10;;;;;;;3.60;2.10;;;14.90;99.90;;;;;;5072051;28;20186;-66
2024/02/16 09:03:38;;;;;;;3.43;2.60;;;15.00;99.90;;;;;;5072098;28;20576;-66
2024/02/16 09:06:04;;;;;;;2.23;1.93;;;15.10;99.90;;;;;;5072023;28;20193;-67
2024/02/16 09:08:33;;;;;;;5.60;2.57;;;15.20;99.90;;;;;;5072082;28;20416;-67
2024/02/16 09:10:59;;;;;;;2.87;1.90;;;15.40;99.90;;;;;;5063436;28;20428;-67
2024/02/16 09:13:25;;;;;;;3.43;2.10;;;15.40;99.90;;;;;;5071578;28;20547;-66
2024/02/16 09:15:51;;;;;;;2.43;2.00;;;15.40;99.90;;;;;;5071919;28;20524;-66
2024/02/16 09:18:17;;;;;;;5.43;2.40;;;15.40;99.90;;;;;;5071768;28;20177;-65
2024/02/16 09:20:43;;;;;;;3.17;2.13;;;15.40;99.90;;;;;;5067041;28;20500;-66
2024/02/16 09:23:09;;;;;;;3.43;2.20;;;15.40;99.90;;;;;;5058806;28;21006;-66
2024/02/16 09:25:35;;;;;;;4.20;2.30;;;15.40;99.90;;;;;;5070735;28;20174;-67
2024/02/16 09:28:00;;;;;;;4.10;2.53;;;15.30;99.90;;;;;;5067982;28;20489;-67
2024/02/16 09:30:26;;;;;;;2.53;2.33;;;15.20;99.90;;;;;;5059977;28;20579;-67
2024/02/16 09:32:52;;;;;;;4.07;2.13;;;15.30;99.90;;;;;;5071727;28;20348;-67
2024/02/16 09:35:17;;;;;;;2.30;1.80;;;15.40;99.90;;;;;;5071655;28;20203;-67
2024/02/16 09:37:43;;;;;;;3.57;1.83;;;15.70;99.90;;;;;;5071687;28;20523;-65
2024/02/16 09:40:12;;;;;;;5.87;2.57;;;16.00;99.90;;;;;;5066638;28;20174;-67
2024/02/16 09:42:38;;;;;;;3.10;2.77;;;16.10;99.90;;;;;;5058110;28;20508;-66
2024/02/16 09:45:07;;;;;;;3.13;2.60;;;16.20;99.90;;;;;;5068270;28;20416;-66
2024/02/16 09:47:34;;;;;;;7.90;3.07;;;16.30;99.90;;;;;;5071454;28;20437;-67
2024/02/16 09:50:00;;;;;;;4.73;2.50;;;16.10;99.90;;;;;;5071399;28;20926;-67
2024/02/16 09:52:26;;;;;;;4.07;2.70;;;16.10;99.90;;;;;;5066914;28;20523;-67
2024/02/16 09:54:52;;;;;;;6.70;3.20;;;16.10;99.90;;;;;;5055271;28;20547;-66
2024/02/16 09:57:18;;;;;;;2.90;2.43;;;16.00;99.90;;;;;;5070056;28;20557;-67
2024/02/16 09:59:44;;;;;;;3.30;2.10;;;15.80;99.90;;;;;;5071375;28;20175;-66
2024/02/16 10:02:10;;;;;;;3.83;3.07;;;15.80;99.90;;;;;;5071716;28;20419;-65
2024/02/16 10:04:36;;;;;;;4.33;3.00;;;15.70;99.90;;;;;;5071685;28;20273;-66
2024/02/16 10:07:01;;;;;;;5.47;2.90;;;15.60;99.90;;;;;;5070431;28;20962;-67
2024/02/16 10:09:34;;;;;;;3.30;2.93;;;15.60;99.90;;;;;;5071402;28;20166;-67
2024/02/16 10:12:00;;;;;;;2.43;2.10;;;15.70;99.90;;;;;;5071658;28;20184;-65
2024/02/16 10:14:26;;;;;;;4.93;2.70;;;15.70;99.90;;;;;;5071120;28;20440;-67
2024/02/16 10:17:02;;;;;;;6.13;2.63;;;15.90;99.90;;;;;;5070243;28;20220;-67
2024/02/16 10:19:30;;;;;;;4.60;2.90;;;16.00;99.90;;;;;;5071254;28;20400;-66
2024/02/16 10:22:07;;;;;;;3.73;2.87;;;15.90;99.90;;;;;;5071575;28;20488;-67
2024/02/16 10:24:32;;;;;;;2.97;2.63;;;15.90;99.90;;;;;;5071526;28;20950;-67
2024/02/16 10:26:58;;;;;;;4.70;3.50;;;15.80;99.90;;;;;;5071305;28;20443;-66
2024/02/16 10:29:26;;;;;;;3.70;2.70;;;15.80;99.90;;;;;;5071338;28;20177;-66
2024/02/16 10:31:52;;;;;;;5.73;2.60;;;15.70;99.90;;;;;;5071503;28;20201;-67
2024/02/16 10:34:19;;;;;;;5.20;3.00;;;15.70;99.90;;;;;;5071300;28;20860;-67
2024/02/16 10:36:44;;;;;;;4.37;2.60;;;15.70;99.90;;;;;;5071338;28;20182;-67
2024/02/16 10:39:11;;;;;;;6.57;2.50;;;15.60;99.90;;;;;;5070344;28;20533;-66
2024/02/16 10:41:41;;;;;;;2.67;2.27;;;15.60;99.90;;;;;;5063555;28;20202;-67
2024/02/16 10:44:07;;;;;;;4.53;2.80;;;15.70;99.90;;;;;;5063183;28;20416;-67
2024/02/16 10:46:33;;;;;;;3.57;2.40;;;15.80;99.90;;;;;;5071271;28;20942;-67
2024/02/16 10:49:00;;;;;;;4.77;2.10;;;15.90;99.90;;;;;;5071082;28;20186;-67
2024/02/16 10:51:48;;;;;;;4.33;2.57;;;15.90;99.90;;;;;;5057611;28;20440;-67
2024/02/16 10:54:17;;;;;;;5.10;2.33;;;16.00;99.90;;;;;;5068487;28;20463;-67
2024/02/16 10:56:42;;;;;;;4.03;2.30;;;16.10;99.90;;;;;;5071092;28;20803;-66
2024/02/16 10:59:09;;;;;;;3.57;2.90;;;16.00;99.90;;;;;;5071046;28;20465;-67
2024/02/16 11:01:40;;;;;;;4.37;3.00;;;16.10;99.90;;;;;;5070632;28;20634;-67
2024/02/16 11:04:20;;;;;;;3.23;2.90;;;16.00;99.90;;;;;;5070995;28;20420;-67
2024/02/16 11:06:56;;;;;;;11.03;3.57;;;16.00;99.90;;;;;;5067904;28;20535;-66
2024/02/16 11:09:29;;;;;;;3.40;2.70;;;16.10;99.90;;;;;;5071787;28;20400;-66
2024/02/16 11:11:59;;;;;;;6.13;2.90;;;16.20;99.90;;;;;;5074487;28;20900;-66
2024/02/16 11:14:56;;;;;;;5.47;3.17;;;16.20;99.90;;;;;;5074069;28;20455;-66
2024/02/16 11:17:23;;;;;;;6.10;2.70;;;16.30;99.90;;;;;;5074092;28;20428;-66
2024/02/16 11:19:49;;;;;;;8.53;3.17;;;16.40;99.90;;;;;;5074045;28;20554;-66
2024/02/16 11:22:19;;;;;;;3.80;2.60;;;16.40;99.90;;;;;;5074115;28;20503;-66
2024/02/16 11:24:49;;;;;;;3.17;2.60;;;16.50;99.90;;;;;;5074249;28;20174;-66
2024/02/16 11:27:18;;;;;;;4.20;3.63;;;16.60;99.90;;;;;;5072573;28;20615;-67
2024/02/16 11:29:45;;;;;;;3.57;2.60;;;16.70;99.90;;;;;;5073779;28;20866;-67
2024/02/16 11:32:11;;;;;;;4.30;2.20;;;16.80;99.90;;;;;;5073877;28;20420;-66
2024/02/16 11:34:37;;;;;;;4.73;2.57;;;16.90;99.90;;;;;;5073904;28;20467;-66
2024/02/16 11:37:04;;;;;;;3.77;2.70;;;16.90;99.90;;;;;;5068617;28;20523;-66
2024/02/16 11:39:31;;;;;;;4.73;3.07;;;16.90;99.90;;;;;;5064411;28;20408;-66
2024/02/16 11:42:04;;;;;;;2.57;2.30;;;16.90;99.90;;;;;;5066403;28;20424;-67
2024/02/16 11:44:31;;;;;;;4.77;2.33;;;17.00;99.90;;;;;;5073679;28;20419;-66
2024/02/16 11:46:57;;;;;;;4.17;2.80;;;17.00;99.90;;;;;;5073736;28;20844;-67
2024/02/16 11:49:23;;;;;;;2.70;2.23;;;17.00;99.90;;;;;;5073410;28;20533;-66
2024/02/16 11:51:49;;;;;;;5.07;2.13;;;17.10;99.90;;;;;;5073757;28;21128;-67
2024/02/16 11:54:15;;;;;;;4.03;1.97;;;17.10;99.90;;;;;;5073654;28;20192;-66
2024/02/16 11:56:45;;;;;;;2.30;1.90;;;16.90;99.90;;;;;;5073684;28;20630;-67
2024/02/16 11:59:15;;;;;;;3.43;2.43;;;16.90;99.90;;;;;;5072428;28;20473;-66
2024/02/16 12:01:52;;;;;;;3.27;2.13;;;16.70;99.90;;;;;;5073790;28;20396;-66
2024/02/16 12:04:21;;;;;;;3.80;2.13;;;16.50;99.90;;;;;;5073674;28;20887;-66
2024/02/16 12:06:47;;;;;;;6.80;2.17;;;16.60;99.90;;;;;;5073478;28;20420;-66
2024/02/16 12:09:16;;;;;;;7.47;2.40;;;16.50;99.90;;;;;;5064134;28;20430;-67
2024/02/16 12:11:42;;;;;;;2.57;2.10;;;16.40;99.90;;;;;;5071323;28;20485;-66
2024/02/16 12:14:07;;;;;;;5.23;2.90;;;16.30;99.90;;;;;;5073105;28;20456;-66
2024/02/16 12:16:33;;;;;;;4.50;3.07;;;16.30;99.90;;;;;;5072880;28;20660;-67
2024/02/16 12:19:05;;;;;;;3.67;1.67;;;16.20;99.90;;;;;;5073152;28;20648;-67
2024/02/16 12:21:31;;;;;;;8.13;2.30;;;16.20;99.90;;;;;;5072667;28;20416;-67
2024/02/16 12:23:57;;;;;;;11.00;3.03;;;16.10;99.90;;;;;;5073029;28;20854;-67
2024/02/16 12:26:22;;;;;;;6.70;2.70;;;16.00;99.90;;;;;;5072754;28;20653;-67
2024/02/16 12:28:48;;;;;;;5.40;2.40;;;15.90;99.90;;;;;;5072969;28;20185;-66
2024/02/16 12:31:23;;;;;;;7.43;2.67;;;15.80;99.90;;;;;;5072564;28;20614;-68
2024/02/16 12:33:49;;;;;;;6.40;3.00;;;15.90;99.90;;;;;;5072824;28;20675;-67
2024/02/16 12:36:15;;;;;;;7.43;2.10;;;15.90;99.90;;;;;;5072684;28;20424;-67
2024/02/16 12:38:40;;;;;;;5.67;2.60;;;15.90;99.90;;;;;;5071752;28;20205;-67
2024/02/16 12:41:06;;;;;;;3.53;2.50;;;15.80;99.90;;;;;;5057356;28;20253;-67
2024/02/16 12:43:32;;;;;;;2.87;2.57;;;15.60;99.90;;;;;;5072078;28;20648;-68